• Join FlightAware (Why Join?)
  • Login
  • US Flag 
03:29PM EDT


 

Airport Tracker/Info


-or-


 

Live Flight TrackerFlight Track Log ✈ EJA727 ✈ 04-May-2013 ✈ KPWA - KSDF

Flight Track Log - Related Links

Times and Time Zones

All times are in EDT time to prevent confusion due to time zone crossing. See the EJA727 flight status page for this flight to view local times or setup timezone preferences in your user account.

Time Position Orientation Groundspeed Altitude Reporting Facility
EDT Latitude Longitude Course Direction KTS MPH feet Rate Location/Type
06:20PM 35.5478 -97.6458 15° North 174 200 2,400  Level Fort Worth Center
06:20PM 35.5853 -97.6331 15° North 197 227 6,200 4,260 Climbing Fort Worth Center
06:21PM 35.6189 -97.5617 60° Northeast 269 310 10,200 3,240 Climbing Fort Worth Center
06:23PM 35.6767 -97.3958 67° East 331 381 15,000 2,580 Climbing Kansas City Center
06:24PM 35.7192 -97.2664 68° East 394 453 17,300 2,580 Climbing Kansas City Center
06:25PM 35.7631 -97.1344 68° East 410 472 20,300 2,820 Climbing Kansas City Center
06:26PM 35.8061 -97.0011 68° East 416 479 23,100 2,280 Climbing Kansas City Center
06:27PM 35.8522 -96.8622 68° East 432 497 25,000 1,800 Climbing Kansas City Center
06:28PM 35.8992 -96.7197 68° East 445 512 26,800 1,560 Climbing Kansas City Center
06:29PM 35.9456 -96.5719 69° East 457 526 28,200 1,560 Climbing Kansas City Center
06:30PM 36.0014 -96.4008 68° East 462 532 30,000 1,320 Climbing Kansas City Center
06:31PM 36.0486 -96.2503 69° East 467 537 31,000 1,020 Climbing Kansas City Center
06:32PM 36.0978 -96.0958 68° East 478 550 32,100 1,020 Climbing Kansas City Center
06:33PM 36.1469 -95.9411 68° East 481 554 33,100 960 Climbing Kansas City Center
06:34PM 36.1950 -95.7900 68° East 476 548 34,100 1,020 Climbing Kansas City Center
06:35PM 36.2417 -95.6369 69° East 464 534 35,200 1,500 Climbing Kansas City Center
06:36PM 36.2844 -95.4933 70° East 451 519 37,200 1,620 Climbing Kansas City Center
06:37PM 36.3256 -95.3503 70° East 445 512 38,600 840 Climbing Kansas City Center
06:39PM 36.3756 -95.1778 70° East 444 511 39,000 180 Climbing Kansas City Center
06:40PM 36.4139 -95.0425 71° East 454 522 39,000  Level Kansas City Center
06:41PM 36.4558 -94.8958 70° East 454 522 39,000  Level Kansas City Center
06:42PM 36.4969 -94.7506 71° East 448 516 39,000  Level Kansas City Center
06:43PM 36.5456 -94.5761 71° East 445 512 39,000  Level Kansas City Center
06:44PM 36.5864 -94.4314 71° East 444 511 39,000  Level Kansas City Center
06:45PM 36.6286 -94.2858 70° East 445 512 39,000  Level Kansas City Center
06:46PM 36.6683 -94.1394 71° East 446 513 39,000  Level Kansas City Center
06:47PM 36.7100 -93.9931 70° East 446 513 39,000  Level Kansas City Center
06:48PM 36.7469 -93.8467 72° East 445 512 39,000  Level Kansas City Center
06:49PM 36.7772 -93.6947 76° East 447 514 39,000  Level Kansas City Center
06:50PM 36.8103 -93.5456 74° East 447 514 39,000  Level Kansas City Center
06:51PM 36.8419 -93.4017 75° East 442 509 39,000  Level Kansas City Center
06:52PM 36.8772 -93.2433 74° East 440 506 39,000  Level Kansas City Center
06:53PM 36.9097 -93.0964 74° East 440 506 39,000  Level Kansas City Center
06:54PM 36.9417 -92.9486 75° East 440 506 39,000  Level Kansas City Center
06:55PM 36.9725 -92.8008 75° East 439 505 39,000  Level Kansas City Center
06:56PM 37.0108 -92.6233 75° East 440 506 39,000  Level Kansas City Center
06:57PM 37.0414 -92.4753 75° East 441 507 39,000  Level Kansas City Center
06:58PM 37.0733 -92.3278 75° East 441 507 39,000  Level Kansas City Center
06:59PM 37.1036 -92.1772 76° East 444 511 39,000  Level Kansas City Center
07:00PM 37.1350 -92.0297 75° East 442 509 39,000  Level Kansas City Center
07:01PM 37.1658 -91.8808 75° East 441 507 39,000  Level Kansas City Center
07:02PM 37.1969 -91.7308 75° East 443 510 39,000  Level Kansas City Center
07:03PM 37.2269 -91.5811 76° East 443 510 39,000  Level Kansas City Center
07:04PM 37.2636 -91.4017 76° East 443 510 39,000  Level Kansas City Center
07:05PM 37.2925 -91.2508 76° East 444 511 39,000  Level Kansas City Center
07:06PM 37.3228 -91.1017 76° East 441 507 39,000  Level Kansas City Center
07:07PM 37.3533 -90.9483 76° East 448 516 39,000  Level Kansas City Center
07:08PM 37.3822 -90.7969 76° East 447 514 39,000  Level Kansas City Center
07:09PM 37.4131 -90.6361 76° East 451 519 39,000 -720 Level Kansas City Center
07:10PM 37.4422 -90.4844 76° East 450 518 37,600 -1,440 Descending Kansas City Center
07:11PM 37.4722 -90.3264 77° East 459 528 36,100 -1,320 Descending Kansas City Center
07:12PM 37.5019 -90.1697 77° East 463 533 34,900 -1,380 Descending Kansas City Center
07:13PM 37.5344 -89.9978 77° East 457 526 33,300 -960 Descending Kansas City Center
07:14PM 37.5631 -89.8489 76° East 446 513 33,000 -180 Descending Kansas City Center
07:15PM 37.5897 -89.6986 77° East 429 494 33,000  Level Kansas City Center
07:16PM 37.6153 -89.5603 77° East 416 479 33,000  Level Kansas City Center
07:17PM 37.6397 -89.4269 77° East 402 463 33,000  Level Kansas City Center
07:18PM 37.6633 -89.2969 77° East 396 456 33,000  Level Kansas City Center
07:19PM 37.6872 -89.1611 77° East 397 457 33,000  Level Kansas City Center
07:20PM 37.7108 -89.0283 77° East 391 450 33,000  Level Kansas City Center
07:22PM 37.7344 -88.8958 77° East 387 445 33,000  Level Kansas City Center
07:23PM 37.7619 -88.7381 78° East 385 443 33,000 -540 Level Kansas City Center
07:24PM 37.7833 -88.6139 78° East 383 441 32,000 -1,440 Descending Kansas City Center
07:25PM 37.8053 -88.4869 78° East 375 432 30,100 -1,500 Descending Kansas City Center
07:26PM 37.8264 -88.3617 78° East 365 420 29,000 -960 Descending Kansas City Center
07:26PM 37.8450 -88.2619 77° East 366 421 28,400 -1,260 Descending Indianapolis Center
07:27PM 37.8664 -88.1328 78° East 373 429 26,800 -1,380 Descending Indianapolis Center
07:28PM 37.8872 -88.0039 78° East 373 429 25,700 -1,020 Descending Indianapolis Center
07:29PM 37.8917 -87.9769 78° East 374 430 25,500 -1,200 Descending Kansas City Center
07:29PM 37.9100 -87.8731 77° East 379 436 24,500 -1,260 Descending Indianapolis Center
07:30PM 37.9339 -87.7453 77° East 375 432 23,300 -1,200 Descending Indianapolis Center
07:31PM 37.9756 -87.6183 67° East 387 445 22,100 -1,200 Descending Indianapolis Center
07:32PM 38.0150 -87.4944 68° East 382 440 20,900 -1,260 Descending Indianapolis Center
07:34PM 38.0533 -87.3708 68° East 377 434 19,600 -1,560 Descending Indianapolis Center
07:35PM 38.1017 -87.2211 68° East 382 440 17,800 -1,620 Descending Indianapolis Center
07:36PM 38.1383 -87.1044 68° East 363 418 16,400 -1,440 Descending Indianapolis Center
07:37PM 38.1739 -86.9903 68° East 354 407 14,900 -1,440 Descending Indianapolis Center
07:38PM 38.2100 -86.8753 68° East 355 409 13,500 -1,200 Descending Indianapolis Center
07:39PM 38.2453 -86.7622 68° East 349 402 12,500 -1,020 Descending Indianapolis Center
07:40PM 38.2467 -86.6469 89° East 328 377 11,500 -960 Descending Indianapolis Center
07:41PM 38.2336 -86.5372 99° East 317 365 10,600 -1,260 Descending Indianapolis Center
07:42PM 38.2214 -86.4492 100° East 257 296 9,000 -1,560 Descending Indianapolis Center
07:43PM 38.2097 -86.3633 100° East 246 283 7,500 -1,380 Descending Indianapolis Center
07:44PM 38.1978 -86.2767 100° East 248 285 6,200 -780 Descending Indianapolis Center
07:45PM 38.1842 -86.1739 100° East 246 283 6,000 -120 Descending Indianapolis Center
07:46PM 38.1736 -86.0872 99° East 247 284 6,000 -540 Level Indianapolis Center
07:47PM 38.1906 -86.0108 74° East 258 297 4,900 -1,020 Descending Indianapolis Center
07:48PM 38.2478 -85.9475 41° Northeast 269 310 4,000 -480 Descending Indianapolis Center
07:49PM 38.3117 -85.9167 21° North 271 312 4,000 -300 Level Indianapolis Center
07:50PM 38.3792 -85.9003 11° North 270 311 3,400 -540 Descending Indianapolis Center
07:51PM 38.3953 -85.8158 76° East 253 291 3,000 -240 Descending Indianapolis Center
07:52PM 38.3433 -85.7817 153° Southeast 228 262 3,000 -120 Level Indianapolis Center
07:53PM 38.2961 -85.7683 168° South 201 231 2,800 -420 Descending Indianapolis Center
07:54PM 38.2639 -85.7578 166° South 166 191 2,200 -420 Descending Indianapolis Center
07:55PM 38.2267 -85.7500 171° South 160 184 2,000 -240 Descending Indianapolis Center